Terminal Aerodrome Forecast
Issued by NWS Duluth, MN

Home | Current Version | Previous Version | Text Only | Print | Product List | Glossary On
Versions: 1 2 3 4 5 6 7 8 9 10 11 12 13 14 15 16 17 18 19
000
FTUS43 KDLH 251737
TAFINL
TAF
KINL 251737Z 2518/2618 27010G16KT P6SM VCSH SCT015 BKN025
      TEMPO 2518/2522 6SM -SHRA BR BKN015
     FM260000 30008KT P6SM SCT020 BKN040
     FM260300 29003KT P6SM SCT040
      TEMPO 2608/2612 2SM BR
     FM261400 23006KT P6SM FEW025=

USA.gov is the U.S. government's official web portal to all federal, state and local government web resources and services.